CheckWX is a tool to help pilots better visualize weather data.  It is not intended as a substitute for an official pre-flight weather briefing.

02:19:12 UTC

SLET TAF
El Trompillo Airport
Santa Cruz, Bolivia
TAF SLET 192250Z 2000/2024 16012KT 8000 SCT023 BKN070 TX24/2020Z TN18/2011Z BECMG 2012/2015 15008KT BKN070 BECMG 2021/2023 SCT070

Aug-20@
00:00 UTC

Aug-20 @ 00:00 UTC

Aug-20@
12:00 UTC

Aug-20 @ 12:00 UTC

TAF SLET 192250Z 2000/2024 16012KT 8000 SCT023 BKN070 TX24/2020Z TN18/2011Z
Wind
  • 160° at 12 KTS
Cloud Levels
  • Scattered at 2,300' AGL
  • Broken at 7,000' AGL

Aug-20@
12:00 UTC

Aug-20 @ 12:00 UTC

Aug-20@
21:00 UTC

Aug-20 @ 21:00 UTC

BECMG 2012/2015 15008KT BKN070

Becoming

Becoming Conditions expected by Tue, Aug 20, 2019 @ 15:00 UTC

Wind
  • 150° at 8 KTS
Cloud Levels
  • Broken at 7,000' AGL

Aug-20@
21:00 UTC

Aug-20 @ 21:00 UTC

Aug-21@
00:00 UTC

Aug-21 @ 00:00 UTC

BECMG 2021/2023 SCT070

Becoming

Becoming Conditions expected by Tue, Aug 20, 2019 @ 23:00 UTC

Wind
  • 150° at 8 KTS
Cloud Levels
  • Scattered at 7,000' AGL